EGNV METAR and TAF | Updated Today

EGNV METAR

Durham Tees Valley Airport

Observation time: 44 min. ago

EGNV 060720Z 17012KT 9999 FEW045 03/01 Q1007

Need help? Read our tutorial on how to read METARs or read the parsed version below.

Durham Tees Valley Airport (EGNV) METAR

  • Weather conditions on Mon, 06 Dec 2021 07:20:00 +0000 (44 min. ago):
  • Present conditions: Dry
  • Clouds: A few at 1372 meters
  • Visibility: Greater than 10 km
  • Wind: 170 degrees at 12 knots
  • Temperature: 3 celsius
  • Dew point: 1 celsius
  • Pressure: 1007 millibars
  • Remarks: None


Useful to know...

EGNV TAF

Durham Tees Valley Airport

TAF EGNV 060629Z 0606/0615 19008KT 9999 SCT030 TEMPO 0606/0612 6000 RA BKN014 PROB30 TEMPO 0606/0612 BKN005
Observation time: 1:35 hr. ago
Need help? Read our tutorial on how to read TAFs or read the parsed version below.

Parsed version of TAF for Durham Tees Valley Airport (EGNV)

  • From 06 December at 06:00 UTC, to day 06 of the month at 15:00 UTC
  • Clouds: Scattered at 914 meters
  • Visibility: Greater than 10 km
  • Wind: 190 degrees at 8
  • Expected to arise temporarily, from 06 December at 06:00 UTC, to day 06 of the month at 12:00 UTC
  • Clouds: Broken sky at 427 meters
  • Visibility: 6000 meters
  • Other: Rain
  • Expected to arise temporarily, from 06 December at 06:00 UTC, to day 06 of the month at 12:00 UTC
    Probability of 30%
  • Clouds: Broken sky at 152 meters